createdAt,value
2022-10-19T00:01:36.842Z,40.08
2022-10-19T00:04:08.772Z,36.30
2022-10-19T00:06:39.153Z,30.83
2022-10-19T00:09:11.078Z,29.45
2022-10-19T00:11:41.877Z,27.80
2022-10-19T00:14:14.165Z,26.90
2022-10-19T00:16:45.000Z,24.10
2022-10-19T00:19:18.362Z,22.85
2022-10-19T00:21:47.385Z,22.98
2022-10-19T00:24:16.186Z,22.90
2022-10-19T00:26:45.092Z,26.77
2022-10-19T00:29:15.244Z,22.45
2022-10-19T00:31:44.404Z,24.77
2022-10-19T00:34:14.733Z,23.27
2022-10-19T00:36:43.513Z,28.45
2022-10-19T00:39:15.734Z,28.30
2022-10-19T00:41:45.717Z,28.60
2022-10-19T00:44:51.565Z,31.30
2022-10-19T00:47:24.246Z,31.15
2022-10-19T00:49:55.502Z,33.22
2022-10-19T00:52:25.981Z,33.25
2022-10-19T00:54:56.755Z,33.05
2022-10-19T00:57:29.638Z,35.10
2022-10-19T01:00:00.213Z,32.33
2022-10-19T01:02:29.096Z,35.60
2022-10-19T01:05:00.449Z,34.97
2022-10-19T01:07:29.479Z,41.17
2022-10-19T01:09:58.571Z,37.75
2022-10-19T01:12:42.894Z,40.72
2022-10-19T01:15:22.835Z,43.90
2022-10-19T01:17:58.882Z,42.42
2022-10-19T01:21:12.513Z,41.53
2022-10-19T01:24:34.832Z,44.20
2022-10-19T01:27:37.813Z,49.30
2022-10-19T01:30:14.803Z,41.80
2022-10-19T01:33:00.875Z,44.60
2022-10-19T01:35:36.185Z,46.25
2022-10-19T01:38:15.772Z,44.17
2022-10-19T01:40:53.743Z,44.83
2022-10-19T01:43:27.317Z,42.72
2022-10-19T01:46:02.893Z,43.80
2022-10-19T01:48:36.211Z,42.70
2022-10-19T01:51:09.570Z,45.85
2022-10-19T01:53:44.094Z,44.77
2022-10-19T01:56:14.068Z,44.20
2022-10-19T01:58:46.968Z,44.60
2022-10-19T02:01:20.911Z,44.33
2022-10-19T02:03:51.730Z,44.65
2022-10-19T02:06:21.220Z,43.95
2022-10-19T02:08:52.218Z,47.70
2022-10-19T02:11:23.384Z,50.15
2022-10-19T02:13:57.999Z,47.72
2022-10-19T02:16:36.185Z,50.63
2022-10-19T02:19:08.717Z,55.57
2022-10-19T02:21:37.743Z,52.40
2022-10-19T02:24:06.984Z,54.83
2022-10-19T02:26:36.076Z,49.00
2022-10-19T02:29:04.994Z,48.13
2022-10-19T02:31:35.255Z,50.00
2022-10-19T02:34:04.275Z,44.70
2022-10-19T02:36:33.191Z,44.27
2022-10-19T02:39:03.653Z,41.20
2022-10-19T02:41:38.130Z,42.70
2022-10-19T02:44:16.449Z,40.90
2022-10-19T02:46:51.681Z,40.70
2022-10-19T02:49:21.353Z,38.47
2022-10-19T02:52:01.917Z,37.10
2022-10-19T02:54:31.113Z,37.80
2022-10-19T02:57:00.156Z,35.30
2022-10-19T02:59:28.926Z,37.17
2022-10-19T03:01:59.140Z,33.17
2022-10-19T03:04:27.925Z,37.22
2022-10-19T03:06:56.694Z,34.88
2022-10-19T03:09:25.551Z,32.50
2022-10-19T03:11:54.350Z,31.73
2022-10-19T03:14:23.137Z,32.80
2022-10-19T03:16:51.906Z,31.95
2022-10-19T03:19:22.125Z,27.50
2022-10-19T03:21:51.076Z,29.50
2022-10-19T03:24:19.829Z,22.60
2022-10-19T03:26:48.562Z,20.75
2022-10-19T03:29:19.690Z,23.15
2022-10-19T03:31:48.431Z,20.95
2022-10-19T03:34:17.189Z,19.73
2022-10-19T03:36:47.489Z,20.10
2022-10-19T03:39:18.168Z,19.80
2022-10-19T03:41:47.261Z,18.98
2022-10-19T03:44:16.438Z,18.13
2022-10-19T03:46:45.272Z,18.73
2022-10-19T03:49:14.170Z,20.67
2022-10-19T03:51:43.021Z,19.95
2022-10-19T03:54:16.091Z,18.90
2022-10-19T03:56:45.057Z,19.73
2022-10-19T03:59:15.964Z,19.20
2022-10-19T04:01:46.808Z,19.30
2022-10-19T04:04:17.249Z,22.33
2022-10-19T04:06:48.501Z,23.52
2022-10-19T04:09:20.640Z,25.05
2022-10-19T04:11:50.421Z,25.33
2022-10-19T04:14:31.856Z,25.00
2022-10-19T04:17:02.425Z,24.83
2022-10-19T04:19:31.568Z,26.63
2022-10-19T04:22:00.921Z,25.80
2022-10-19T04:24:31.263Z,25.73
2022-10-19T04:27:00.134Z,24.52
2022-10-19T04:29:30.074Z,26.00
2022-10-19T04:32:00.308Z,26.67
2022-10-19T04:34:29.267Z,25.23
2022-10-19T04:36:59.739Z,26.53
2022-10-19T04:39:28.773Z,25.65
2022-10-19T04:41:58.988Z,24.50
2022-10-19T04:44:28.009Z,22.88
2022-10-19T04:46:56.859Z,23.43
2022-10-19T04:49:25.678Z,24.47
2022-10-19T04:51:54.531Z,22.77
2022-10-19T04:54:23.492Z,26.37
2022-10-19T04:56:54.008Z,21.37
2022-10-19T04:59:24.362Z,21.75
2022-10-19T05:01:53.181Z,23.83
2022-10-19T05:04:22.053Z,20.60
2022-10-19T05:06:50.810Z,22.23
2022-10-19T05:09:21.970Z,23.73
2022-10-19T05:11:51.849Z,22.30
2022-10-19T05:14:20.696Z,27.00
2022-10-19T05:16:51.001Z,22.00
2022-10-19T05:19:20.015Z,24.00
2022-10-19T05:21:50.893Z,22.13
2022-10-19T05:24:19.784Z,21.73
2022-10-19T05:26:48.520Z,24.17
2022-10-19T05:29:17.296Z,20.57
2022-10-19T05:31:46.165Z,21.37
2022-10-19T05:34:16.362Z,24.73
2022-10-19T05:36:45.184Z,21.00
2022-10-19T05:39:16.034Z,21.77
2022-10-19T05:41:45.740Z,24.03
2022-10-19T05:44:17.044Z,26.77
2022-10-19T05:46:46.047Z,22.17
2022-10-19T05:49:17.667Z,19.70
2022-10-19T05:51:46.520Z,20.43
2022-10-19T05:54:16.175Z,25.30
2022-10-19T05:56:45.573Z,30.30
2022-10-19T05:59:16.693Z,21.37
2022-10-19T06:01:45.634Z,23.03
2022-10-19T06:06:46.119Z,24.27
2022-10-19T06:09:14.875Z,24.53
2022-10-19T06:11:44.823Z,28.03
2022-10-19T06:14:15.702Z,36.57
2022-10-19T06:16:46.237Z,32.43
2022-10-19T06:19:16.677Z,33.83
2022-10-19T06:21:46.755Z,36.97
2022-10-19T06:24:15.697Z,38.07
2022-10-19T06:26:45.575Z,36.93
2022-10-19T06:29:14.375Z,32.33
2022-10-19T06:31:43.205Z,32.90
2022-10-19T06:34:11.966Z,31.58
2022-10-19T06:36:42.294Z,32.03
2022-10-19T06:39:11.565Z,30.90
2022-10-19T06:41:40.349Z,32.72
2022-10-19T06:44:20.195Z,29.77
2022-10-19T06:46:48.985Z,29.80
2022-10-19T06:49:17.797Z,39.65
2022-10-19T06:51:47.955Z,25.13
2022-10-19T06:54:16.704Z,25.85
2022-10-19T06:56:45.515Z,26.75
2022-10-19T06:59:14.984Z,22.52
2022-10-19T07:01:44.039Z,22.95
2022-10-19T07:04:13.041Z,22.75
2022-10-19T07:06:41.836Z,20.23
2022-10-19T07:09:12.058Z,19.50
2022-10-19T07:11:45.677Z,17.40
2022-10-19T07:14:19.744Z,16.90
2022-10-19T07:16:50.826Z,19.30
2022-10-19T07:19:19.569Z,16.63
2022-10-19T07:21:51.532Z,17.27
2022-10-19T07:24:21.772Z,13.77
2022-10-19T07:26:50.619Z,13.40
2022-10-19T07:29:19.430Z,14.63
2022-10-19T07:31:48.398Z,13.52
2022-10-19T07:34:18.008Z,17.08
2022-10-19T07:36:48.308Z,15.90
2022-10-19T07:39:18.478Z,13.35
2022-10-19T07:41:49.039Z,12.05
2022-10-19T07:44:18.100Z,11.63
2022-10-19T07:46:47.189Z,11.52
2022-10-19T07:49:19.167Z,14.23
2022-10-19T07:51:48.424Z,13.02
2022-10-19T07:54:17.253Z,13.65
2022-10-19T07:56:47.478Z,12.00
2022-10-19T07:59:17.425Z,13.32
2022-10-19T08:01:51.500Z,12.52
2022-10-19T08:07:09.679Z,13.27
2022-10-19T08:09:52.605Z,13.35
2022-10-19T08:12:23.715Z,16.30
2022-10-19T08:14:52.661Z,12.93
2022-10-19T08:17:21.351Z,11.70
2022-10-19T08:19:50.202Z,10.77
2022-10-19T08:22:18.897Z,11.60
2022-10-19T08:24:47.652Z,13.05
2022-10-19T08:27:16.462Z,12.98
2022-10-19T08:29:46.797Z,12.00
2022-10-19T08:32:15.637Z,13.88
2022-10-19T08:34:44.527Z,13.55
2022-10-19T08:37:26.106Z,13.30
2022-10-19T08:40:03.525Z,13.90
2022-10-19T08:42:42.465Z,14.95
2022-10-19T08:48:26.647Z,19.00
2022-10-19T08:50:56.971Z,19.15
2022-10-19T08:53:33.737Z,15.02
2022-10-19T08:56:45.976Z,15.93
2022-10-19T08:59:17.256Z,18.67
2022-10-19T09:01:55.306Z,18.75
2022-10-19T09:04:27.512Z,23.70
2022-10-19T09:07:09.669Z,23.25
2022-10-19T09:12:20.273Z,19.52
2022-10-19T09:14:59.104Z,19.67
2022-10-19T09:17:30.323Z,18.27
2022-10-19T09:20:00.298Z,19.25
2022-10-19T09:22:34.584Z,14.77
2022-10-19T09:25:10.173Z,19.23
2022-10-19T09:27:43.873Z,17.63
2022-10-19T09:30:20.386Z,17.33
2022-10-19T09:32:54.272Z,16.25
2022-10-19T09:35:29.034Z,19.48
2022-10-19T09:37:58.493Z,14.32
2022-10-19T09:40:30.335Z,19.27
2022-10-19T09:43:03.263Z,21.88
2022-10-19T09:45:37.854Z,21.45
2022-10-19T09:48:19.776Z,21.38
2022-10-19T09:50:56.080Z,17.95
2022-10-19T09:53:26.813Z,20.55
2022-10-19T09:56:01.885Z,20.00
2022-10-19T09:58:33.277Z,20.08
2022-10-19T10:01:04.034Z,21.65
2022-10-19T10:03:36.525Z,18.50
2022-10-19T10:06:08.152Z,21.85
2022-10-19T10:08:39.617Z,18.65
2022-10-19T10:11:12.741Z,18.90
2022-10-19T10:13:43.942Z,21.48
2022-10-19T10:16:17.312Z,21.50
2022-10-19T10:18:57.086Z,19.80
2022-10-19T10:21:27.913Z,23.50
2022-10-19T10:24:06.854Z,17.48
2022-10-19T10:26:41.269Z,19.77
2022-10-19T10:29:28.742Z,19.40
2022-10-19T10:32:01.922Z,15.02
2022-10-19T10:34:49.541Z,17.83
2022-10-19T10:37:23.522Z,22.23
2022-10-19T10:39:55.167Z,15.20
2022-10-19T10:42:30.903Z,15.73
2022-10-19T10:45:00.822Z,13.02
2022-10-19T10:47:30.925Z,15.07
2022-10-19T10:50:05.982Z,11.57
2022-10-19T10:52:37.237Z,16.88
2022-10-19T10:55:19.273Z,10.57
2022-10-19T10:57:51.363Z,9.52
2022-10-19T11:00:22.018Z,11.93
2022-10-19T11:02:55.754Z,10.68
2022-10-19T11:05:28.113Z,11.30
2022-10-19T11:08:02.464Z,10.13
2022-10-19T11:10:35.717Z,9.82
2022-10-19T11:13:11.822Z,8.85
2022-10-19T11:15:51.604Z,12.80
2022-10-19T11:18:25.713Z,9.63
2022-10-19T11:21:05.933Z,8.85
2022-10-19T11:23:49.445Z,9.27
2022-10-19T11:26:36.706Z,10.30
2022-10-19T11:29:31.474Z,13.00
2022-10-19T11:32:00.574Z,13.40
2022-10-19T11:34:47.743Z,10.90
2022-10-19T11:37:27.363Z,11.40
2022-10-19T11:40:22.107Z,24.50
2022-10-19T11:43:00.913Z,9.48
2022-10-19T11:45:43.206Z,13.00
2022-10-19T11:48:43.723Z,10.93
2022-10-19T11:51:22.325Z,10.63
2022-10-19T11:54:02.927Z,10.95
2022-10-19T11:56:58.082Z,9.77
2022-10-19T11:59:36.929Z,12.50
2022-10-19T12:02:15.746Z,9.90
2022-10-19T12:04:53.190Z,9.40
2022-10-19T12:07:47.769Z,10.20
2022-10-19T12:10:28.005Z,12.73
2022-10-19T12:13:00.090Z,16.95
2022-10-19T12:15:33.652Z,9.73
2022-10-19T12:18:08.494Z,10.80
2022-10-19T12:20:41.309Z,11.15
2022-10-19T12:23:26.308Z,11.45
2022-10-19T12:25:59.469Z,9.90
2022-10-19T12:28:30.949Z,14.77
2022-10-19T12:31:02.702Z,13.25
2022-10-19T12:33:47.659Z,17.67
2022-10-19T12:36:34.412Z,14.30
2022-10-19T12:39:11.680Z,14.77
2022-10-19T12:41:47.451Z,20.40
2022-10-19T12:44:35.578Z,15.02
2022-10-19T12:47:12.053Z,17.17
2022-10-19T12:49:49.382Z,14.90
2022-10-19T12:52:37.828Z,17.75
2022-10-19T12:55:20.812Z,15.57
2022-10-19T12:58:00.643Z,15.60
2022-10-19T13:00:32.941Z,15.95
2022-10-19T13:03:06.162Z,14.95
2022-10-19T13:05:36.402Z,17.05
2022-10-19T13:08:10.681Z,14.07
2022-10-19T13:10:42.703Z,11.60
2022-10-19T13:13:44.473Z,12.10
2022-10-19T13:16:42.717Z,14.98
2022-10-19T13:19:23.594Z,14.57
2022-10-19T13:22:08.962Z,14.20
2022-10-19T13:24:38.882Z,11.50
2022-10-19T13:27:26.320Z,14.82
2022-10-19T13:29:55.382Z,14.18
2022-10-19T13:32:45.533Z,13.20
2022-10-19T13:35:34.823Z,14.95
2022-10-19T13:38:28.532Z,15.05
2022-10-19T13:41:24.224Z,12.43
2022-10-19T13:44:02.432Z,17.92
2022-10-19T13:46:49.722Z,10.55
2022-10-19T13:49:54.142Z,14.90
2022-10-19T13:52:51.402Z,13.88
2022-10-19T13:55:32.375Z,16.08
2022-10-19T13:58:28.332Z,15.77
2022-10-19T14:01:11.649Z,15.13
2022-10-19T14:04:02.510Z,13.48
2022-10-19T14:06:37.829Z,15.45
2022-10-19T14:09:31.860Z,15.43
2022-10-19T14:12:07.202Z,15.23
2022-10-19T14:14:43.345Z,16.55
2022-10-19T14:17:20.431Z,15.60
2022-10-19T14:19:52.536Z,14.02
2022-10-19T14:22:27.307Z,11.73
2022-10-19T14:25:02.751Z,13.00
2022-10-19T14:27:32.554Z,11.57
2022-10-19T14:30:01.823Z,12.18
2022-10-19T14:32:35.407Z,16.55
2022-10-19T14:35:07.993Z,11.57
2022-10-19T14:37:39.318Z,14.45
2022-10-19T14:40:27.844Z,11.88
2022-10-19T14:42:58.359Z,15.43
2022-10-19T14:45:29.547Z,17.85
2022-10-19T14:48:03.277Z,18.05
2022-10-19T14:50:42.748Z,16.20
2022-10-19T14:53:34.379Z,13.38
2022-10-19T14:56:07.622Z,14.18
2022-10-19T14:58:42.568Z,15.73
2022-10-19T15:01:13.214Z,15.63
2022-10-19T15:03:44.540Z,15.65
2022-10-19T15:06:21.069Z,15.80
2022-10-19T15:08:55.145Z,16.75
2022-10-19T15:11:31.117Z,14.55
2022-10-19T15:14:03.746Z,13.48
2022-10-19T15:16:41.772Z,16.13
2022-10-19T15:19:19.669Z,14.43
2022-10-19T15:21:48.490Z,12.20
2022-10-19T15:24:28.150Z,15.38
2022-10-19T15:27:08.784Z,13.02
2022-10-19T15:29:38.850Z,19.17
2022-10-19T15:32:23.029Z,16.38
2022-10-19T15:34:52.229Z,14.93
2022-10-19T15:37:23.882Z,13.07
2022-10-19T15:39:54.629Z,18.75
2022-10-19T15:42:30.890Z,15.82
2022-10-19T15:45:02.344Z,16.58
2022-10-19T15:47:33.570Z,14.82
2022-10-19T15:50:03.577Z,18.80
2022-10-19T15:52:34.927Z,17.17
2022-10-19T15:55:05.475Z,14.32
2022-10-19T15:57:36.268Z,19.65
2022-10-19T16:00:14.289Z,15.35
2022-10-19T16:02:43.189Z,20.95
2022-10-19T16:05:12.077Z,19.25
2022-10-19T16:07:42.119Z,16.75
2022-10-19T16:10:19.633Z,18.13
2022-10-19T16:12:48.599Z,21.02
2022-10-19T16:15:22.514Z,15.27
2022-10-19T16:17:52.730Z,23.83
2022-10-19T16:20:22.179Z,22.10
2022-10-19T16:22:51.078Z,20.95
2022-10-19T16:25:21.658Z,21.00
2022-10-19T16:27:50.463Z,16.27
2022-10-19T16:30:19.595Z,21.23
2022-10-19T16:32:49.969Z,20.15
2022-10-19T16:35:18.840Z,15.32
2022-10-19T16:37:47.599Z,14.40
2022-10-19T16:40:16.660Z,18.58
2022-10-19T16:42:46.907Z,18.95
2022-10-19T16:45:15.785Z,17.60
2022-10-19T16:47:45.480Z,15.45
2022-10-19T16:50:15.868Z,18.38
2022-10-19T16:52:44.698Z,20.58
2022-10-19T16:55:13.577Z,18.10
2022-10-19T16:57:42.379Z,21.92
2022-10-19T17:00:15.287Z,22.58
2022-10-19T17:02:45.820Z,21.25
2022-10-19T17:05:15.632Z,24.95
2022-10-19T17:07:44.567Z,22.50
2022-10-19T17:10:13.506Z,25.38
2022-10-19T17:12:42.595Z,25.55
2022-10-19T17:18:02.201Z,27.05
2022-10-19T17:20:31.053Z,20.70
2022-10-19T17:22:59.915Z,23.05
2022-10-19T17:25:28.674Z,18.73
2022-10-19T17:27:57.485Z,19.50
2022-10-19T17:30:27.773Z,22.65
2022-10-19T17:32:56.584Z,21.38
2022-10-19T17:35:25.484Z,24.05
2022-10-19T17:37:54.865Z,21.45
2022-10-19T17:40:23.786Z,21.48
2022-10-19T17:42:52.526Z,20.92
2022-10-19T17:45:21.455Z,24.52
2022-10-19T17:47:51.974Z,22.92
2022-10-19T17:50:20.776Z,26.90
2022-10-19T17:52:49.598Z,23.23
2022-10-19T17:55:18.578Z,20.83
2022-10-19T17:57:47.449Z,20.85
2022-10-19T18:00:16.756Z,20.75
2022-10-19T18:02:46.349Z,22.65
2022-10-19T18:05:16.889Z,25.40
2022-10-19T18:07:47.047Z,29.73
2022-10-19T18:10:15.977Z,23.60
2022-10-19T18:12:45.395Z,23.30
2022-10-19T18:15:14.136Z,27.40
2022-10-19T18:17:42.997Z,26.17
2022-10-19T18:20:13.027Z,23.40
2022-10-19T18:25:21.768Z,28.73
2022-10-19T18:28:00.245Z,24.20
2022-10-19T18:30:29.419Z,22.05
2022-10-19T18:33:00.347Z,21.38
2022-10-19T18:35:29.216Z,25.85
2022-10-19T18:37:59.426Z,27.42
2022-10-19T18:40:28.206Z,26.23
2022-10-19T18:42:57.039Z,21.50
2022-10-19T18:45:25.932Z,28.00
2022-10-19T18:47:55.655Z,21.70
2022-10-19T18:50:24.476Z,23.20
2022-10-19T18:52:53.313Z,21.58
2022-10-19T18:55:23.614Z,22.98
2022-10-19T18:57:52.484Z,25.05
2022-10-19T19:00:21.539Z,22.55
2022-10-19T19:02:55.221Z,23.60
2022-10-19T19:05:24.406Z,21.23
2022-10-19T19:07:53.248Z,26.98
2022-10-19T19:10:23.524Z,25.95
2022-10-19T19:12:53.244Z,23.15
2022-10-19T19:15:22.165Z,22.27
2022-10-19T19:17:50.983Z,23.95
2022-10-19T19:20:19.884Z,20.40
2022-10-19T19:22:48.786Z,22.48
2022-10-19T19:25:17.696Z,23.55
2022-10-19T19:27:47.975Z,26.23
2022-10-19T19:30:17.502Z,21.13
2022-10-19T19:32:47.045Z,22.90
2022-10-19T19:35:16.014Z,22.52
2022-10-19T19:37:44.772Z,21.80
2022-10-19T19:40:13.935Z,23.40
2022-10-19T19:42:42.744Z,22.02
2022-10-19T19:45:13.154Z,21.92
2022-10-19T19:47:42.067Z,24.25
2022-10-19T19:50:11.515Z,24.92
2022-10-19T19:52:40.642Z,23.48
2022-10-19T19:55:10.028Z,23.35
2022-10-19T19:57:38.963Z,21.65
2022-10-19T20:00:08.995Z,23.15
2022-10-19T20:02:41.695Z,20.58
2022-10-19T20:05:11.214Z,21.40
2022-10-19T20:07:40.257Z,21.42
2022-10-19T20:10:10.954Z,19.63
2022-10-19T20:12:40.234Z,23.52
2022-10-19T20:15:09.832Z,21.90
2022-10-19T20:17:38.750Z,20.33
2022-10-19T20:20:11.074Z,20.55
2022-10-19T20:22:40.503Z,19.35
2022-10-19T20:25:10.076Z,19.70
2022-10-19T20:27:38.877Z,22.27
2022-10-19T20:30:09.195Z,18.70
2022-10-19T20:32:38.816Z,22.05
2022-10-19T20:35:09.916Z,20.08
2022-10-19T20:37:38.727Z,20.70
2022-10-19T20:40:09.084Z,21.48
2022-10-19T20:42:38.261Z,21.38
2022-10-19T20:45:08.297Z,19.23
2022-10-19T20:47:38.126Z,21.48
2022-10-19T20:50:09.742Z,22.50
2022-10-19T20:52:38.704Z,19.70
2022-10-19T20:55:08.397Z,21.85
2022-10-19T20:57:39.537Z,21.35
2022-10-19T21:00:09.606Z,19.67
2022-10-19T21:02:38.628Z,22.77
2022-10-19T21:05:10.298Z,20.17
2022-10-19T21:07:39.147Z,23.92
2022-10-19T21:10:08.622Z,21.40
2022-10-19T21:12:37.854Z,18.55
2022-10-19T21:15:07.541Z,18.90
2022-10-19T21:17:36.365Z,23.88
2022-10-19T21:20:06.341Z,19.77
2022-10-19T21:22:39.836Z,20.85
2022-10-19T21:25:11.714Z,18.67
2022-10-19T21:27:40.504Z,20.50
2022-10-19T21:30:10.459Z,21.88
2022-10-19T21:32:39.305Z,19.42
2022-10-19T21:35:08.764Z,21.73
2022-10-19T21:37:39.013Z,19.48
2022-10-19T21:40:08.917Z,22.15
2022-10-19T21:42:37.726Z,22.20
2022-10-19T21:45:25.580Z,20.80
2022-10-19T21:47:56.238Z,19.58
2022-10-19T21:50:24.942Z,20.15
2022-10-19T21:52:55.168Z,19.55
2022-10-19T21:55:24.948Z,19.58
2022-10-19T21:57:53.745Z,21.10
2022-10-19T22:00:22.619Z,19.85
2022-10-19T22:02:51.345Z,20.70
2022-10-19T22:05:20.276Z,20.48
2022-10-19T22:07:49.073Z,19.15
2022-10-19T22:10:19.483Z,21.08
2022-10-19T22:12:48.325Z,22.23
2022-10-19T22:15:18.342Z,23.02
2022-10-19T22:17:47.115Z,23.58
2022-10-19T22:20:15.959Z,20.80
2022-10-19T22:22:44.672Z,21.38
2022-10-19T22:25:13.417Z,23.13
2022-10-19T22:27:43.652Z,22.20
2022-10-19T22:30:12.855Z,26.90
2022-10-19T22:32:41.641Z,24.40
2022-10-19T22:35:10.767Z,22.90
2022-10-19T22:37:39.505Z,24.73
2022-10-19T22:40:09.387Z,26.17
2022-10-19T22:43:32.720Z,23.92
2022-10-19T22:47:33.541Z,20.83
2022-10-19T22:51:15.612Z,24.40
2022-10-19T22:54:05.814Z,21.13
2022-10-19T22:56:34.552Z,22.55
2022-10-19T22:59:06.238Z,21.33
2022-10-19T23:01:35.347Z,25.05
2022-10-19T23:04:04.543Z,19.23
2022-10-19T23:06:33.343Z,22.90
2022-10-19T23:09:02.357Z,24.27
2022-10-19T23:11:32.610Z,20.48
2022-10-19T23:14:01.374Z,23.55
2022-10-19T23:16:30.172Z,20.58
2022-10-19T23:18:58.955Z,21.23
2022-10-19T23:21:27.684Z,19.10
2022-10-19T23:23:56.393Z,19.02
2022-10-19T23:26:25.187Z,19.67
2022-10-19T23:28:55.372Z,20.85
2022-10-19T23:31:26.242Z,22.88
2022-10-19T23:33:55.980Z,19.58
2022-10-19T23:36:26.968Z,18.88
2022-10-19T23:38:57.150Z,20.75
2022-10-19T23:41:26.457Z,19.73
2022-10-19T23:43:56.691Z,20.02
2022-10-19T23:46:25.457Z,18.85
2022-10-19T23:48:54.248Z,19.10
2022-10-19T23:51:24.178Z,19.30
2022-10-19T23:53:53.907Z,20.02
2022-10-19T23:56:24.757Z,20.65
2022-10-19T23:58:55.610Z,20.08
